Castle Douglas, United Kingdom
Current Conditions -  °F | °C
As of 2:20 PM on Saturday 25 Oct 2014 (Local Time) from EGNC Reporting Station
Scattered Clouds Scattered Clouds  
Wind Chill: 54°   Ceiling: Unl
Heat Index: 54°   Visibility: 6mi
Dew Point: 48°   Wind: 29mph
Humidity: 82%   Direction: 240°WSW
Pressure: 29.77"   Gusts: NA
Location:  54.94°N, 3.93°W
Report Text: EGNC 251320Z 24025KT 9999 SCT020 SCT025 12/09 Q1008
Loading
Personal Weather Stations






























Interactive Weather Map
Tropical Storm Tracking
New forecast layout! Learn more

10-Day Weather Forecast

Advertisements
Track Severe Weather on mobile